Time;durP1;ratioP1;P1;durP2;ratioP2;P2;SDS_P1;SDS_P2;PMS_P1;PMS_P2;Temp;Humidity;BMP_temperature;BMP_pressure;BME280_temperature;BME280_humidity;BME280_pressure;Samples;Min_cycle;Max_cycle;Signal;HPM_P1;HPM_P2
2023/08/02 00:02:26;;;;;;;2.30;1.08;;;19.90;65.40;;;;;;5000374;28;20053;-50
2023/08/02 00:04:53;;;;;;;1.77;1.30;;;19.80;65.40;;;;;;5011632;28;20042;-49
2023/08/02 00:07:23;;;;;;;3.72;0.95;;;19.80;65.50;;;;;;5011791;28;20042;-49
2023/08/02 00:09:52;;;;;;;2.42;1.15;;;19.80;65.50;;;;;;5018987;28;20053;-50
2023/08/02 00:12:19;;;;;;;2.97;1.30;;;19.80;65.40;;;;;;5031268;28;20643;-50
2023/08/02 00:14:49;;;;;;;1.15;1.00;;;19.80;65.60;;;;;;5030645;28;20529;-48
2023/08/02 00:17:16;;;;;;;3.38;1.23;;;19.80;65.60;;;;;;5012880;28;20458;-50
2023/08/02 00:19:42;;;;;;;2.00;1.40;;;19.70;65.60;;;;;;5028297;28;20460;-49
2023/08/02 00:22:09;;;;;;;1.40;1.00;;;19.70;65.90;;;;;;5030460;28;20041;-48
2023/08/02 00:24:37;;;;;;;2.05;1.35;;;19.70;65.90;;;;;;5029037;28;20557;-47
2023/08/02 00:27:05;;;;;;;3.05;1.70;;;19.70;66.00;;;;;;5008107;28;20057;-48
2023/08/02 00:29:36;;;;;;;2.72;1.50;;;19.60;66.10;;;;;;5016244;28;20042;-50
2023/08/02 00:32:03;;;;;;;2.78;1.23;;;19.60;66.30;;;;;;5010905;28;20090;-47
2023/08/02 00:34:33;;;;;;;2.17;1.40;;;19.60;66.40;;;;;;5024741;28;20062;-49
2023/08/02 00:37:04;;;;;;;4.05;1.30;;;19.60;66.70;;;;;;5019366;28;20041;-50
2023/08/02 00:39:31;;;;;;;1.35;1.25;;;19.60;66.60;;;;;;5022120;28;20038;-50
2023/08/02 00:41:57;;;;;;;3.72;1.55;;;19.50;66.60;;;;;;5018863;28;20053;-46
2023/08/02 00:44:25;;;;;;;3.08;1.98;;;19.50;66.70;;;;;;5025695;28;20065;-48
2023/08/02 00:46:53;;;;;;;2.47;1.75;;;19.50;66.90;;;;;;5016910;28;20111;-47
2023/08/02 00:49:24;;;;;;;4.55;1.58;;;19.50;67.00;;;;;;5025638;28;20049;-50
2023/08/02 00:51:50;;;;;;;1.88;1.38;;;19.50;67.20;;;;;;5028058;28;20045;-48
2023/08/02 00:54:19;;;;;;;2.22;1.58;;;19.50;67.20;;;;;;5024806;28;20088;-49
2023/08/02 00:56:48;;;;;;;4.75;1.70;;;19.50;67.20;;;;;;5001096;28;20061;-47
2023/08/02 00:59:18;;;;;;;2.13;1.55;;;19.50;67.30;;;;;;5021500;28;20542;-51
2023/08/02 01:01:50;;;;;;;3.63;1.52;;;19.60;67.40;;;;;;5023615;28;20503;-50
2023/08/02 01:04:17;;;;;;;1.73;1.38;;;19.60;67.30;;;;;;5030004;28;20068;-47
2023/08/02 01:06:56;;;;;;;3.75;1.70;;;19.60;67.30;;;;;;5023672;28;20065;-50
2023/08/02 01:09:33;;;;;;;;;;;19.70;67.70;;;;;;5021149;28;20037;-50
2023/08/02 01:12:09;;;;;;;4.82;1.90;;;19.70;67.30;;;;;;5021258;28;19929;-48
2023/08/02 01:14:40;;;;;;;4.20;1.65;;;19.70;67.10;;;;;;5025914;28;20044;-46
2023/08/02 01:17:24;;;;;;;3.30;1.50;;;19.70;66.90;;;;;;5038380;28;20041;-50
2023/08/02 01:19:53;;;;;;;3.70;2.05;;;19.70;66.80;;;;;;5027233;28;20128;-49
2023/08/02 01:22:23;;;;;;;2.85;2.00;;;19.80;67.20;;;;;;5023653;28;20145;-48
2023/08/02 01:24:49;;;;;;;3.17;1.98;;;19.70;67.00;;;;;;5010404;28;20063;-50
2023/08/02 01:27:25;;;;;;;2.50;1.75;;;19.80;67.20;;;;;;5028403;28;20045;-47
2023/08/02 01:29:55;;;;;;;3.30;1.70;;;19.80;67.30;;;;;;5015225;28;20650;-49
2023/08/02 01:32:23;;;;;;;5.00;1.70;;;19.80;67.20;;;;;;5026347;28;20054;-49
2023/08/02 01:34:51;;;;;;;3.88;2.05;;;19.80;67.10;;;;;;5026096;28;20045;-49
2023/08/02 01:37:19;;;;;;;3.35;2.15;;;19.90;67.00;;;;;;5015931;28;20124;-50
2023/08/02 01:39:48;;;;;;;3.90;1.80;;;19.80;67.00;;;;;;5021758;28;20069;-50
2023/08/02 01:42:15;;;;;;;4.00;2.05;;;19.90;67.70;;;;;;5023924;28;20049;-47
2023/08/02 01:44:47;;;;;;;3.80;1.80;;;19.90;67.00;;;;;;5022937;28;20077;-46
2023/08/02 01:47:17;;;;;;;3.92;2.15;;;19.90;66.90;;;;;;5014979;28;20046;-50
2023/08/02 01:49:44;;;;;;;4.45;1.90;;;19.90;66.80;;;;;;5024783;28;20057;-50
2023/08/02 01:52:13;;;;;;;5.40;2.00;;;19.90;66.90;;;;;;5019260;28;20479;-49
2023/08/02 01:54:40;;;;;;;3.47;1.83;;;20.00;66.90;;;;;;5014250;28;20586;-50
2023/08/02 01:57:06;;;;;;;4.50;1.92;;;20.00;66.80;;;;;;5040835;28;20086;-49
2023/08/02 01:59:36;;;;;;;4.43;1.83;;;20.00;66.80;;;;;;5017606;28;20046;-50
2023/08/02 02:02:05;;;;;;;3.35;1.50;;;20.00;67.00;;;;;;5022894;28;20141;-48
2023/08/02 02:04:31;;;;;;;3.38;1.95;;;20.00;66.90;;;;;;5026561;28;20060;-47
2023/08/02 02:07:05;;;;;;;4.05;2.00;;;20.10;66.90;;;;;;5019238;28;20137;-51
2023/08/02 02:09:32;;;;;;;4.18;1.80;;;20.10;66.80;;;;;;5001051;28;20034;-49
2023/08/02 02:12:03;;;;;;;5.00;1.95;;;20.10;67.10;;;;;;5022811;28;20041;-47
2023/08/02 02:14:33;;;;;;;3.08;2.03;;;20.10;67.00;;;;;;5024651;28;20511;-48
2023/08/02 02:17:04;;;;;;;3.40;1.67;;;20.10;67.00;;;;;;5013272;28;20042;-47
2023/08/02 02:19:31;;;;;;;4.55;1.85;;;20.10;67.30;;;;;;5023735;28;20034;-49
2023/08/02 02:21:58;;;;;;;3.20;2.20;;;20.20;67.20;;;;;;5014655;28;20441;-49
2023/08/02 02:24:29;;;;;;;3.20;2.42;;;20.20;67.30;;;;;;5021721;28;20512;-49
2023/08/02 02:26:57;;;;;;;4.50;2.03;;;20.20;67.40;;;;;;5023993;28;20038;-48
2023/08/02 02:29:25;;;;;;;4.07;1.83;;;20.20;67.80;;;;;;5009890;28;20042;-48
2023/08/02 02:31:51;;;;;;;6.47;2.28;;;20.20;68.10;;;;;;5018448;28;20172;-49
2023/08/02 02:34:18;;;;;;;4.85;2.20;;;20.20;68.40;;;;;;5025639;28;20045;-45
2023/08/02 02:36:50;;;;;;;4.20;2.00;;;20.20;68.50;;;;;;5020312;28;20088;-49
2023/08/02 02:39:20;;;;;;;2.33;1.92;;;20.20;68.50;;;;;;5005187;28;20095;-47
2023/08/02 02:41:51;;;;;;;4.63;1.85;;;20.20;69.10;;;;;;5017455;28;20044;-50
2023/08/02 02:44:20;;;;;;;3.08;2.00;;;20.20;69.00;;;;;;5018207;28;20037;-49
2023/08/02 02:46:49;;;;;;;3.55;1.83;;;20.20;69.30;;;;;;5018614;28;20043;-50
2023/08/02 02:49:20;;;;;;;3.70;1.83;;;20.20;69.30;;;;;;5010442;28;20037;-47
2023/08/02 02:51:47;;;;;;;3.30;1.90;;;20.20;69.40;;;;;;5009086;28;20046;-50
2023/08/02 02:54:23;;;;;;;2.90;2.38;;;20.20;69.30;;;;;;5018620;28;20037;-50
2023/08/02 02:56:52;;;;;;;3.80;1.80;;;20.20;69.60;;;;;;5012694;28;20397;-51
2023/08/02 02:59:23;;;;;;;4.13;2.10;;;20.20;69.80;;;;;;5003927;28;20150;-49
2023/08/02 03:01:50;;;;;;;4.22;2.30;;;20.20;69.90;;;;;;5019993;28;20069;-49
2023/08/02 03:04:23;;;;;;;2.85;2.10;;;20.20;70.20;;;;;;5018189;28;20111;-49
2023/08/02 03:06:51;;;;;;;2.47;1.85;;;20.20;70.20;;;;;;5025783;28;20073;-47
2023/08/02 03:09:18;;;;;;;3.78;2.35;;;20.20;70.20;;;;;;5009022;28;20037;-50
2023/08/02 03:11:48;;;;;;;6.05;2.35;;;20.20;70.20;;;;;;5032425;23;20049;-47
2023/08/02 03:14:15;;;;;;;3.63;2.20;;;20.20;70.20;;;;;;5012527;28;20030;-52
2023/08/02 03:16:43;;;;;;;2.47;2.03;;;20.10;70.30;;;;;;5012514;28;20068;-49
2023/08/02 03:19:14;;;;;;;3.05;2.25;;;20.20;70.30;;;;;;5010086;28;20041;-51
2023/08/02 03:21:43;;;;;;;4.03;2.20;;;20.10;70.30;;;;;;5011618;28;20469;-51
2023/08/02 03:24:16;;;;;;;4.00;2.95;;;20.20;70.70;;;;;;5011695;28;20074;-51
2023/08/02 03:26:45;;;;;;;4.43;2.20;;;20.10;70.40;;;;;;5012165;28;20033;-52
2023/08/02 03:29:12;;;;;;;3.95;2.22;;;20.10;70.40;;;;;;5009885;28;20052;-50
2023/08/02 03:31:44;;;;;;;3.85;2.00;;;20.10;70.70;;;;;;5006575;28;20119;-49
2023/08/02 03:34:14;;;;;;;5.38;2.40;;;20.10;70.70;;;;;;5012083;28;20069;-52
2023/08/02 03:36:43;;;;;;;5.43;2.83;;;20.10;70.70;;;;;;5012314;28;20109;-51
2023/08/02 03:39:12;;;;;;;4.55;2.53;;;20.10;71.00;;;;;;5011488;28;20045;-50
2023/08/02 03:41:39;;;;;;;4.38;2.53;;;20.10;70.80;;;;;;5012036;28;20053;-52
2023/08/02 03:44:06;;;;;;;2.70;2.35;;;20.00;70.90;;;;;;5013431;28;20038;-50
2023/08/02 03:46:38;;;;;;;5.65;2.40;;;20.00;71.00;;;;;;5011082;28;20042;-52
2023/08/02 03:49:05;;;;;;;9.10;3.58;;;20.00;71.20;;;;;;5012020;28;20050;-48
2023/08/02 03:51:32;;;;;;;4.65;2.08;;;20.00;71.10;;;;;;5027832;28;20133;-52
2023/08/02 03:54:00;;;;;;;5.43;2.00;;;20.00;71.10;;;;;;5013315;28;20077;-51
2023/08/02 03:56:30;;;;;;;2.47;2.13;;;19.90;71.20;;;;;;5008271;28;20042;-51
2023/08/02 03:58:59;;;;;;;5.10;2.90;;;19.90;71.50;;;;;;5010726;28;20100;-50
2023/08/02 04:01:26;;;;;;;5.05;2.25;;;19.90;71.30;;;;;;5012223;28;20105;-52
2023/08/02 04:04:00;;;;;;;2.47;2.20;;;19.90;71.50;;;;;;5010466;28;20457;-51
2023/08/02 04:06:27;;;;;;;5.68;2.38;;;19.90;71.60;;;;;;5012255;28;20042;-51
2023/08/02 04:08:56;;;;;;;3.20;2.38;;;19.90;71.80;;;;;;5011568;28;20399;-51
2023/08/02 04:11:24;;;;;;;4.05;2.25;;;19.90;71.60;;;;;;5006699;28;20050;-51
2023/08/02 04:13:50;;;;;;;3.65;2.28;;;19.90;71.50;;;;;;5013229;28;20436;-49
2023/08/02 04:16:23;;;;;;;4.40;1.95;;;19.90;71.60;;;;;;5008040;28;20500;-51
2023/08/02 04:18:50;;;;;;;4.65;2.55;;;19.90;71.70;;;;;;5013140;28;20552;-52
2023/08/02 04:21:19;;;;;;;4.32;2.00;;;19.90;71.70;;;;;;5011443;28;20041;-51
2023/08/02 04:23:50;;;;;;;2.90;2.60;;;19.90;71.80;;;;;;5011071;28;20610;-51
2023/08/02 04:26:17;;;;;;;3.60;2.25;;;19.90;71.60;;;;;;5009448;28;20050;-50
2023/08/02 04:28:48;;;;;;;4.72;2.28;;;19.90;71.70;;;;;;5009705;28;20061;-51
2023/08/02 04:31:17;;;;;;;3.35;2.22;;;19.90;71.80;;;;;;5009589;28;20136;-52
2023/08/02 04:33:48;;;;;;;5.18;2.80;;;19.90;71.80;;;;;;5012037;28;20504;-51
2023/08/02 04:36:18;;;;;;;5.00;1.98;;;19.90;71.70;;;;;;5012895;28;20605;-48
2023/08/02 04:38:45;;;;;;;7.18;2.25;;;19.90;71.60;;;;;;5007313;28;20046;-52
2023/08/02 04:41:15;;;;;;;4.20;2.60;;;19.90;71.70;;;;;;5004848;28;20097;-51
2023/08/02 04:43:42;;;;;;;3.15;2.00;;;19.90;72.00;;;;;;5009153;28;20054;-49
2023/08/02 04:46:09;;;;;;;6.57;1.90;;;19.80;71.70;;;;;;5008935;28;20049;-52
2023/08/02 04:48:37;;;;;;;5.68;2.10;;;19.80;71.90;;;;;;5008240;28;20052;-52
2023/08/02 04:51:10;;;;;;;1.95;1.70;;;19.90;71.90;;;;;;5005065;28;20129;-51
2023/08/02 04:53:36;;;;;;;4.25;1.70;;;19.90;71.80;;;;;;5008634;28;20563;-51
2023/08/02 04:56:09;;;;;;;2.88;1.50;;;19.80;71.40;;;;;;5009844;28;20041;-51
2023/08/02 04:58:36;;;;;;;1.90;1.52;;;19.80;71.60;;;;;;5007410;28;20522;-50
2023/08/02 05:01:03;;;;;;;3.42;2.15;;;19.80;71.30;;;;;;5010078;28;20542;-49
2023/08/02 05:03:30;;;;;;;3.35;1.48;;;19.80;71.40;;;;;;5005840;28;20049;-50
2023/08/02 05:06:04;;;;;;;1.52;1.35;;;19.80;71.50;;;;;;5025370;28;20052;-51
2023/08/02 05:08:32;;;;;;;3.35;1.88;;;19.80;71.50;;;;;;5009792;28;20042;-51
2023/08/02 05:10:59;;;;;;;3.13;1.48;;;19.80;71.60;;;;;;5005225;28;20096;-47
2023/08/02 05:13:26;;;;;;;3.08;1.60;;;19.80;71.60;;;;;;5009866;28;20469;-50
2023/08/02 05:15:54;;;;;;;2.10;1.20;;;19.80;71.80;;;;;;5008721;28;20042;-51
2023/08/02 05:18:21;;;;;;;1.48;1.38;;;19.80;72.60;;;;;;5008552;28;20042;-51
2023/08/02 05:20:49;;;;;;;1.63;1.42;;;19.80;71.90;;;;;;5009806;28;20128;-51
2023/08/02 05:23:16;;;;;;;2.22;1.35;;;19.80;72.00;;;;;;5009681;28;20791;-49
2023/08/02 05:25:43;;;;;;;3.80;1.92;;;19.80;72.00;;;;;;5008937;28;20069;-49
2023/08/02 05:28:10;;;;;;;4.20;1.75;;;19.80;72.00;;;;;;5006219;28;20128;-51
2023/08/02 05:30:37;;;;;;;3.63;2.17;;;19.80;72.00;;;;;;5023053;28;20542;-48
2023/08/02 05:33:06;;;;;;;1.75;1.58;;;19.80;72.10;;;;;;5008205;28;20149;-52
2023/08/02 05:35:33;;;;;;;1.58;1.48;;;19.80;72.10;;;;;;5012978;28;20038;-51
2023/08/02 05:38:00;;;;;;;3.50;2.00;;;19.80;72.20;;;;;;5008709;28;20404;-51
2023/08/02 05:40:26;;;;;;;2.92;1.45;;;19.80;72.30;;;;;;5008260;28;20049;-50
2023/08/02 05:42:53;;;;;;;3.63;2.10;;;19.80;72.30;;;;;;5007650;28;20041;-51
2023/08/02 05:45:20;;;;;;;4.45;2.03;;;19.80;72.50;;;;;;5002213;28;20049;-51
2023/08/02 05:47:49;;;;;;;3.45;1.80;;;19.80;72.70;;;;;;5005468;28;20136;-51
2023/08/02 05:50:16;;;;;;;2.50;1.98;;;19.80;72.80;;;;;;5009035;28;20042;-51
2023/08/02 05:52:43;;;;;;;3.78;2.10;;;19.80;72.70;;;;;;5008952;28;20042;-52
2023/08/02 05:55:10;;;;;;;4.00;2.25;;;19.80;72.80;;;;;;5008334;28;20132;-51
2023/08/02 05:57:39;;;;;;;2.33;1.98;;;19.90;72.80;;;;;;5008650;28;20038;-51
2023/08/02 06:00:07;;;;;;;3.72;2.58;;;19.90;73.00;;;;;;5007027;28;20041;-49
2023/08/02 06:02:34;;;;;;;4.28;2.28;;;19.90;73.10;;;;;;5005587;28;20038;-50
2023/08/02 06:05:02;;;;;;;4.80;2.05;;;19.90;73.00;;;;;;5004832;28;20435;-48
2023/08/02 06:07:29;;;;;;;3.70;2.00;;;19.90;73.20;;;;;;5008880;28;20405;-51
2023/08/02 06:09:55;;;;;;;2.10;1.90;;;19.90;73.20;;;;;;5008611;28;20053;-46
2023/08/02 06:12:22;;;;;;;4.32;2.05;;;19.90;73.20;;;;;;5011870;28;20073;-51
2023/08/02 06:14:49;;;;;;;2.65;2.20;;;19.90;73.40;;;;;;5010901;28;20089;-49
2023/08/02 06:17:16;;;;;;;3.03;2.20;;;19.90;73.40;;;;;;5009584;28;20042;-46
2023/08/02 06:19:42;;;;;;;3.60;2.10;;;19.90;73.60;;;;;;5010114;28;20555;-52
2023/08/02 06:22:09;;;;;;;3.08;1.88;;;19.90;73.60;;;;;;5010581;28;20046;-49
2023/08/02 06:24:36;;;;;;;3.72;2.20;;;19.90;73.60;;;;;;5005749;28;20459;-49
2023/08/02 06:27:03;;;;;;;2.58;2.13;;;20.00;73.70;;;;;;5009172;28;20120;-51
2023/08/02 06:29:32;;;;;;;2.60;2.10;;;20.00;73.80;;;;;;5008073;28;20057;-48
2023/08/02 06:31:59;;;;;;;3.58;2.10;;;20.00;73.70;;;;;;5006963;28;20117;-51
2023/08/02 06:34:25;;;;;;;4.18;2.30;;;20.00;73.70;;;;;;5006857;28;20484;-51
2023/08/02 06:36:52;;;;;;;3.30;2.35;;;20.00;73.60;;;;;;5005023;28;20737;-51
2023/08/02 06:39:18;;;;;;;3.28;2.38;;;20.00;73.80;;;;;;5008869;28;20049;-50
2023/08/02 06:41:45;;;;;;;4.10;1.98;;;20.00;74.00;;;;;;5008579;28;20062;-51
2023/08/02 06:44:13;;;;;;;1.95;1.75;;;20.10;74.10;;;;;;5007823;28;20049;-46
2023/08/02 06:46:41;;;;;;;4.60;2.50;;;20.00;74.00;;;;;;5009089;28;20057;-51
2023/08/02 06:49:07;;;;;;;3.47;2.22;;;20.10;74.20;;;;;;5009693;28;20041;-49
2023/08/02 06:51:34;;;;;;;3.00;2.15;;;20.10;74.10;;;;;;5008815;28;20054;-50
2023/08/02 06:54:03;;;;;;;2.72;2.53;;;20.10;74.10;;;;;;5007963;28;20073;-51
2023/08/02 06:56:30;;;;;;;2.33;2.13;;;20.20;74.30;;;;;;5006821;28;20136;-51
2023/08/02 06:58:56;;;;;;;2.38;2.17;;;20.20;74.20;;;;;;5008899;28;20117;-51
2023/08/02 07:01:23;;;;;;;3.97;1.95;;;20.20;74.40;;;;;;5008763;28;20041;-51
2023/08/02 07:03:50;;;;;;;2.75;1.95;;;20.30;74.20;;;;;;5006117;28;20061;-51
2023/08/02 07:06:18;;;;;;;1.80;1.58;;;20.30;74.10;;;;;;5008597;28;20104;-50
2023/08/02 07:08:46;;;;;;;3.47;2.47;;;20.30;74.20;;;;;;5008912;28;20051;-50
2023/08/02 07:11:16;;;;;;;2.15;1.95;;;20.40;74.40;;;;;;5007452;28;20415;-49
2023/08/02 07:14:00;;;;;;;4.57;2.45;;;20.30;74.60;;;;;;5008788;28;20065;-51
2023/08/02 07:16:27;;;;;;;4.78;2.65;;;20.40;74.50;;;;;;5009003;28;20052;-51
2023/08/02 07:18:54;;;;;;;3.00;2.10;;;20.40;74.40;;;;;;5007599;28;20037;-51
2023/08/02 07:21:20;;;;;;;2.83;2.40;;;20.40;74.50;;;;;;5006721;28;20104;-51
2023/08/02 07:23:47;;;;;;;3.28;2.25;;;20.50;74.90;;;;;;5007627;28;20042;-50
2023/08/02 07:26:14;;;;;;;3.38;2.70;;;20.50;74.90;;;;;;5008563;28;20064;-51
2023/08/02 07:28:40;;;;;;;2.72;2.05;;;20.50;74.90;;;;;;5006810;28;20037;-49
2023/08/02 07:31:12;;;;;;;2.58;2.20;;;20.60;75.60;;;;;;5008041;28;20120;-51
2023/08/02 07:33:39;;;;;;;4.13;2.80;;;20.70;75.00;;;;;;5007603;28;20126;-51
2023/08/02 07:36:13;;;;;;;2.58;2.13;;;20.70;74.60;;;;;;5007914;28;20046;-51
2023/08/02 07:38:40;;;;;;;3.50;2.35;;;20.80;74.60;;;;;;5005804;28;20069;-51
2023/08/02 07:41:06;;;;;;;13.23;3.55;;;20.90;74.20;;;;;;5009011;28;20057;-51
2023/08/02 07:43:33;;;;;;;3.60;2.15;;;20.90;74.30;;;;;;5005124;28;20044;-50
2023/08/02 07:46:03;;;;;;;3.92;1.98;;;21.00;74.40;;;;;;5007903;28;20639;-49
2023/08/02 07:48:30;;;;;;;1.90;1.70;;;21.10;74.20;;;;;;5011782;28;20056;-52
2023/08/02 07:50:57;;;;;;;2.15;1.85;;;21.10;74.00;;;;;;5007716;28;20042;-51
2023/08/02 07:53:24;;;;;;;2.92;1.80;;;21.20;73.90;;;;;;5009711;28;20050;-51
2023/08/02 07:56:00;;;;;;;3.47;1.85;;;21.20;73.80;;;;;;5011980;28;20112;-50
2023/08/02 07:58:26;;;;;;;1.60;1.50;;;21.40;74.00;;;;;;5011030;28;20117;-51
2023/08/02 08:00:53;;;;;;;1.60;1.40;;;21.40;73.70;;;;;;5012496;28;20092;-50
2023/08/02 08:03:20;;;;;;;2.30;2.10;;;21.50;73.60;;;;;;5009782;28;20080;-50
2023/08/02 08:05:47;;;;;;;2.08;1.40;;;21.50;73.50;;;;;;5010222;28;20096;-51
2023/08/02 08:08:14;;;;;;;2.65;1.60;;;21.50;73.50;;;;;;5007044;28;20042;-48
2023/08/02 08:10:41;;;;;;;3.03;1.50;;;21.60;73.40;;;;;;5006804;28;20041;-52
2023/08/02 08:13:08;;;;;;;2.17;1.52;;;21.60;73.30;;;;;;5003987;28;20053;-50
2023/08/02 08:15:36;;;;;;;1.90;1.27;;;21.70;73.30;;;;;;5010104;28;20129;-51
2023/08/02 08:18:03;;;;;;;1.27;1.08;;;21.80;73.40;;;;;;5005338;28;20065;-47
2023/08/02 08:20:30;;;;;;;1.02;0.98;;;21.70;73.10;;;;;;5005749;28;20042;-51
2023/08/02 08:22:56;;;;;;;0.90;0.80;;;21.70;73.20;;;;;;5011419;28;20117;-51
2023/08/02 08:25:25;;;;;;;1.20;1.10;;;21.80;73.30;;;;;;5010484;28;20062;-48
2023/08/02 08:27:52;;;;;;;3.00;0.98;;;21.80;73.30;;;;;;5010782;28;20689;-48
2023/08/02 08:30:20;;;;;;;1.38;1.23;;;21.90;73.40;;;;;;5010450;28;20423;-47
2023/08/02 08:32:48;;;;;;;1.38;1.27;;;21.90;73.50;;;;;;5007614;28;20048;-51
2023/08/02 08:35:14;;;;;;;2.13;1.30;;;21.90;73.60;;;;;;5013226;28;20508;-47
2023/08/02 08:37:41;;;;;;;1.13;0.90;;;22.00;73.60;;;;;;5011131;28;20041;-51
2023/08/02 08:40:16;;;;;;;1.35;0.70;;;22.10;73.70;;;;;;5010269;28;20117;-51
2023/08/02 08:42:55;;;;;;;1.30;1.15;;;22.20;74.00;;;;;;5005832;28;20050;-51
2023/08/02 08:45:24;;;;;;;1.02;0.77;;;22.20;73.70;;;;;;5010899;28;20121;-51
2023/08/02 08:47:52;;;;;;;0.75;0.75;;;22.30;73.90;;;;;;5010850;28;20100;-50
2023/08/02 08:50:21;;;;;;;2.78;1.00;;;22.30;73.70;;;;;;5012100;28;20056;-50
2023/08/02 08:52:51;;;;;;;0.40;0.35;;;22.40;74.00;;;;;;5009872;28;20120;-52
2023/08/02 08:55:22;;;;;;;0.35;0.35;;;22.60;74.30;;;;;;5011779;28;20053;-50
2023/08/02 08:57:50;;;;;;;0.73;0.57;;;22.50;73.70;;;;;;5010051;28;20121;-51
2023/08/02 09:00:17;;;;;;;1.00;0.50;;;22.50;73.50;;;;;;5008535;28;20121;-46
2023/08/02 09:02:45;;;;;;;1.95;0.32;;;22.60;73.40;;;;;;5005981;28;20054;-51
2023/08/02 09:05:12;;;;;;;1.50;0.40;;;22.70;73.30;;;;;;5010790;28;20077;-46
2023/08/02 09:07:38;;;;;;;0.40;0.40;;;22.70;73.10;;;;;;5009839;28;20515;-51
2023/08/02 09:10:06;;;;;;;0.22;0.20;;;22.70;73.50;;;;;;5010190;28;20107;-51
2023/08/02 09:12:43;;;;;;;0.30;0.17;;;22.80;74.40;;;;;;5008245;28;20053;-48
2023/08/02 09:15:10;;;;;;;0.10;0.10;;;22.90;74.90;;;;;;5011480;28;20064;-51
2023/08/02 09:17:50;;;;;;;0.10;0.10;;;23.00;74.70;;;;;;5009959;28;20076;-51
2023/08/02 09:20:22;;;;;;;0.10;0.10;;;23.20;74.90;;;;;;5009330;28;20049;-52
2023/08/02 09:22:49;;;;;;;0.20;0.10;;;23.30;74.40;;;;;;5008232;28;21231;-49
2023/08/02 09:25:26;;;;;;;0.10;0.10;;;23.40;74.00;;;;;;5011234;28;20411;-52
2023/08/02 09:27:55;;;;;;;0.43;0.10;;;23.60;73.90;;;;;;5013044;28;20045;-54
2023/08/02 09:30:26;;;;;;;3.72;0.30;;;23.60;73.90;;;;;;5009917;28;20077;-51
2023/08/02 09:33:00;;;;;;;0.55;0.20;;;23.80;72.50;;;;;;5008343;28;20069;-51
2023/08/02 09:35:30;;;;;;;0.43;0.38;;;23.80;72.10;;;;;;5002852;28;20562;-49
2023/08/02 09:37:57;;;;;;;0.10;0.10;;;23.80;71.50;;;;;;5009005;28;20117;-49
2023/08/02 09:40:35;;;;;;;0.00;0.00;;;23.80;71.50;;;;;;5005344;28;20177;-49
2023/08/02 09:43:20;;;;;;;0.10;0.10;;;23.80;70.90;;;;;;5001979;28;20459;-51
2023/08/02 09:45:47;;;;;;;0.10;0.05;;;23.80;70.80;;;;;;5004594;28;20445;-50
2023/08/02 09:48:14;;;;;;;0.10;0.10;;;23.70;71.10;;;;;;5008406;28;20096;-54
2023/08/02 09:50:55;;;;;;;0.10;0.10;;;23.70;71.70;;;;;;5008877;28;20058;-55
2023/08/02 09:53:24;;;;;;;0.43;0.13;;;23.70;72.10;;;;;;5007300;28;20161;-52
2023/08/02 09:55:55;;;;;;;0.10;0.10;;;23.80;72.10;;;;;;5008055;28;20077;-52
2023/08/02 09:58:24;;;;;;;0.10;0.10;;;23.80;72.50;;;;;;5007576;28;20052;-51
2023/08/02 10:00:52;;;;;;;0.10;0.10;;;23.80;72.20;;;;;;5006739;28;20504;-54
2023/08/02 10:03:22;;;;;;;0.10;0.10;;;24.00;72.80;;;;;;5008831;28;20542;-51
2023/08/02 10:05:55;;;;;;;0.40;0.10;;;24.00;72.30;;;;;;5008993;28;20054;-52
2023/08/02 10:08:23;;;;;;;1.17;0.20;;;24.20;72.50;;;;;;5008767;28;20469;-54
2023/08/02 10:10:52;;;;;;;0.75;0.10;;;24.30;72.60;;;;;;5007774;28;20046;-53
2023/08/02 10:13:28;;;;;;;0.13;0.13;;;24.40;71.90;;;;;;5019959;28;20047;-50
2023/08/02 10:15:57;;;;;;;0.10;0.10;;;24.60;72.30;;;;;;5008082;28;20804;-52
2023/08/02 10:18:24;;;;;;;0.80;0.10;;;24.70;71.70;;;;;;5008185;28;20088;-49
2023/08/02 10:20:53;;;;;;;0.10;0.10;;;24.80;71.10;;;;;;5008418;28;20044;-52
2023/08/02 10:23:19;;;;;;;0.30;0.15;;;25.00;70.40;;;;;;5006566;28;20518;-49
2023/08/02 10:25:47;;;;;;;0.10;0.10;;;25.00;70.30;;;;;;5005500;28;20116;-51
2023/08/02 10:28:16;;;;;;;0.57;0.10;;;25.10;70.10;;;;;;5002303;28;20054;-51
2023/08/02 10:30:42;;;;;;;0.52;0.30;;;25.10;70.10;;;;;;5005690;28;20073;-52
2023/08/02 10:33:28;;;;;;;0.20;0.20;;;25.20;70.30;;;;;;5009464;28;20051;-54
2023/08/02 10:36:03;;;;;;;0.30;0.30;;;25.30;70.00;;;;;;5009934;28;20073;-53
2023/08/02 10:38:38;;;;;;;1.50;0.20;;;25.40;69.20;;;;;;5005312;28;20515;-54
2023/08/02 10:41:09;;;;;;;0.10;0.10;;;25.50;68.20;;;;;;5005630;28;20056;-49
2023/08/02 10:43:51;;;;;;;0.20;0.20;;;25.60;68.30;;;;;;4999989;28;20033;-55
2023/08/02 10:46:25;;;;;;;0.20;0.20;;;25.70;67.30;;;;;;4999482;28;20057;-52
2023/08/02 10:48:53;;;;;;;0.10;0.10;;;25.70;67.20;;;;;;5003334;28;20394;-54
2023/08/02 10:51:32;;;;;;;0.80;0.20;;;25.80;66.80;;;;;;5000599;28;20121;-53
2023/08/02 10:54:22;;;;;;;0.20;0.20;;;25.80;66.10;;;;;;4997668;28;20052;-51
2023/08/02 10:56:52;;;;;;;0.20;0.20;;;25.80;65.70;;;;;;5006644;28;20042;-54
2023/08/02 10:59:25;;;;;;;1.10;0.30;;;25.90;65.90;;;;;;5007981;28;20100;-54
2023/08/02 11:01:56;;;;;;;0.30;0.30;;;25.90;66.10;;;;;;5009499;28;20034;-52
2023/08/02 11:04:28;;;;;;;0.38;0.30;;;25.90;65.70;;;;;;5008366;28;20088;-54
2023/08/02 11:06:55;;;;;;;0.30;0.30;;;25.90;66.90;;;;;;5007411;28;20046;-54
2023/08/02 11:09:35;;;;;;;0.28;0.20;;;25.90;67.00;;;;;;5007693;28;20057;-52
2023/08/02 11:12:28;;;;;;;0.30;0.30;;;25.90;66.40;;;;;;5007885;28;20135;-54
2023/08/02 11:14:55;;;;;;;0.38;0.20;;;25.90;67.10;;;;;;5006183;28;20060;-48
2023/08/02 11:17:23;;;;;;;0.20;0.20;;;25.70;66.90;;;;;;5007844;28;20403;-53
2023/08/02 11:19:54;;;;;;;0.85;0.20;;;25.60;66.70;;;;;;5010258;28;20574;-49
2023/08/02 11:22:25;;;;;;;0.45;0.30;;;25.50;67.20;;;;;;5010653;28;20389;-53
2023/08/02 11:24:56;;;;;;;0.20;0.20;;;25.30;67.60;;;;;;5005710;28;20080;-51
2023/08/02 11:27:24;;;;;;;0.90;0.30;;;25.10;68.40;;;;;;5006573;28;20061;-54
2023/08/02 11:30:11;;;;;;;0.35;0.30;;;25.00;69.70;;;;;;5007925;28;20050;-52
2023/08/02 11:32:45;;;;;;;0.20;0.20;;;25.00;70.20;;;;;;5007052;28;20076;-52
2023/08/02 11:35:20;;;;;;;0.43;0.30;;;24.90;70.40;;;;;;5003624;28;20057;-52
2023/08/02 11:37:47;;;;;;;0.20;0.20;;;24.90;70.40;;;;;;5004188;28;20066;-50
2023/08/02 11:40:14;;;;;;;0.30;0.30;;;24.90;70.40;;;;;;5008335;28;20050;-53
2023/08/02 11:42:49;;;;;;;5.18;0.60;;;24.90;70.80;;;;;;5004540;28;20042;-54
2023/08/02 11:45:29;;;;;;;0.43;0.43;;;25.00;70.90;;;;;;5003787;28;20065;-52
2023/08/02 11:47:56;;;;;;;0.52;0.32;;;24.90;71.30;;;;;;5006179;28;20147;-51
2023/08/02 11:50:36;;;;;;;0.30;0.30;;;24.90;71.10;;;;;;5008119;28;20522;-53
2023/08/02 11:53:08;;;;;;;1.08;0.40;;;24.90;71.40;;;;;;5005484;28;20073;-54
2023/08/02 11:55:35;;;;;;;0.50;0.32;;;25.00;72.10;;;;;;5005640;28;20684;-53
2023/08/02 11:58:08;;;;;;;0.50;0.45;;;25.00;71.80;;;;;;5007665;28;20042;-52
2023/08/02 12:00:37;;;;;;;0.32;0.32;;;25.10;71.90;;;;;;5008908;28;20125;-50
2023/08/02 12:03:08;;;;;;;0.98;0.50;;;25.10;71.80;;;;;;5009217;28;20042;-53
2023/08/02 12:05:35;;;;;;;0.40;0.30;;;25.10;72.30;;;;;;5009609;28;20045;-51
2023/08/02 12:08:17;;;;;;;0.57;0.57;;;25.20;71.30;;;;;;5009970;28;20101;-53
2023/08/02 12:10:46;;;;;;;0.35;0.35;;;25.20;70.90;;;;;;5011230;28;20050;-53
2023/08/02 12:13:15;;;;;;;0.38;0.30;;;25.30;71.80;;;;;;5005079;28;20045;-53
2023/08/02 12:16:11;;;;;;;0.40;0.30;;;25.40;71.10;;;;;;5012020;28;20067;-52
2023/08/02 12:18:52;;;;;;;0.35;0.35;;;25.40;70.80;;;;;;5007648;28;20561;-52
2023/08/02 12:21:19;;;;;;;0.60;0.60;;;25.50;69.50;;;;;;5009350;28;20042;-52
2023/08/02 12:23:46;;;;;;;0.70;0.70;;;25.50;69.30;;;;;;5010434;28;20061;-51
2023/08/02 12:26:30;;;;;;;0.65;0.63;;;25.50;69.20;;;;;;5005295;28;20069;-53
2023/08/02 12:28:58;;;;;;;1.73;0.60;;;25.60;69.00;;;;;;5009262;28;20034;-52
2023/08/02 12:31:24;;;;;;;1.17;0.82;;;25.60;68.20;;;;;;5011189;28;20056;-52
2023/08/02 12:33:51;;;;;;;0.80;0.60;;;25.70;68.60;;;;;;5010828;28;20200;-51
2023/08/02 12:36:26;;;;;;;2.42;1.17;;;25.70;68.40;;;;;;5010057;28;20045;-54
2023/08/02 12:38:53;;;;;;;1.48;0.80;;;25.80;67.90;;;;;;5005649;28;20038;-52
2023/08/02 12:41:20;;;;;;;1.65;0.65;;;25.90;67.80;;;;;;5005274;28;20039;-52
2023/08/02 12:43:47;;;;;;;1.17;0.70;;;25.90;68.50;;;;;;5004216;28;20038;-53
2023/08/02 12:46:16;;;;;;;3.03;1.30;;;26.00;67.40;;;;;;5005214;28;20046;-51
2023/08/02 12:48:46;;;;;;;2.50;0.82;;;26.10;66.50;;;;;;5010225;28;20041;-51
2023/08/02 12:51:13;;;;;;;1.75;0.60;;;26.20;65.50;;;;;;5010748;28;20084;-52
2023/08/02 12:53:43;;;;;;;1.50;0.80;;;26.20;65.60;;;;;;5006626;28;20050;-52
2023/08/02 12:56:09;;;;;;;3.10;1.00;;;26.30;65.30;;;;;;4994316;28;20134;-51
2023/08/02 12:58:36;;;;;;;3.13;0.95;;;26.40;65.60;;;;;;5005717;28;20558;-53
2023/08/02 13:01:02;;;;;;;1.65;0.80;;;26.60;64.70;;;;;;5005487;28;20116;-50